Terminal Aerodrome Forecast
Issued by NWS Mt. Holly, NJ

Home | Current Version | Previous Version | Text Only | Print | Product List | Glossary On
Versions: 1 2 3 4 5 6 7 8 9 10 11 12 13 14 15 16
316
FTUS41 KPHI 142347
TAFABE
TAF
KABE 142347Z 1500/1524 25005KT P6SM FEW250
     FM150200 VRB02KT P6SM BKN250
     FM151200 09004KT P6SM OVC100
      TEMPO 1517/1519 6SM -SN OVC050
     FM151900 14007KT 2SM -SN OVC030
     FM152200 10006KT 3SM -SNPL OVC015=

USA.gov is the U.S. government's official web portal to all federal, state and local government web resources and services.